RJTJ(METAR)
06/27 01:00
METAR RJTJ 261600Z 32003KT 280V350 9999 FEW030 SCT/// 22/19 Q1011
RMK 1CU030 A2988=
戻る
トップページへ戻る
IMOC Co,.Ltd.